createdAt,value
2017-10-03T00:00:03.756Z,0
2017-10-03T00:01:12.812Z,0
2017-10-03T00:02:21.519Z,0
2017-10-03T00:03:30.510Z,0
2017-10-03T00:04:40.458Z,0
2017-10-03T00:05:49.762Z,0
2017-10-03T00:06:58.761Z,0
2017-10-03T00:08:07.756Z,0
2017-10-03T00:09:16.810Z,0
2017-10-03T00:10:26.119Z,0
2017-10-03T00:11:35.523Z,0
2017-10-03T00:12:44.519Z,0
2017-10-03T00:13:53.514Z,0
2017-10-03T00:15:03.197Z,0
2017-10-03T00:16:13.151Z,0
2017-10-03T00:17:21.926Z,0
2017-10-03T00:18:30.636Z,0
2017-10-03T00:19:39.944Z,0
2017-10-03T00:20:49.249Z,0
2017-10-03T00:21:58.263Z,0
2017-10-03T00:23:07.433Z,0
2017-10-03T00:24:17.117Z,0
2017-10-03T00:25:26.457Z,0
2017-10-03T00:26:35.145Z,0
2017-10-03T00:27:44.465Z,0
2017-10-03T00:28:53.475Z,0
2017-10-03T00:30:02.471Z,0
2017-10-03T00:31:12.077Z,0
2017-10-03T00:32:21.424Z,0
2017-10-03T00:33:30.107Z,0
2017-10-03T00:34:39.614Z,0
2017-10-03T00:35:48.326Z,0
2017-10-03T00:36:57.686Z,0
2017-10-03T00:38:06.384Z,0
2017-10-03T00:39:15.414Z,0
2017-10-03T00:40:24.716Z,0
2017-10-03T00:41:33.457Z,0
2017-10-03T00:42:42.146Z,0
2017-10-03T00:43:50.854Z,0
2017-10-03T00:45:00.187Z,0
2017-10-03T00:46:09.516Z,0
2017-10-03T00:47:18.805Z,0
2017-10-03T00:48:27.815Z,0
2017-10-03T00:49:37.123Z,0
2017-10-03T00:50:46.125Z,0
2017-10-03T00:51:55.269Z,0
2017-10-03T00:53:03.962Z,0
2017-10-03T00:54:12.661Z,0
2017-10-03T00:55:21.392Z,0
2017-10-03T00:56:30.065Z,0
2017-10-03T00:57:39.055Z,0
2017-10-03T00:58:47.764Z,0
2017-10-03T00:59:56.807Z,0
2017-10-03T01:01:05.521Z,0
2017-10-03T01:02:14.196Z,0
2017-10-03T01:03:23.489Z,0
2017-10-03T01:04:32.900Z,0
2017-10-03T01:05:42.517Z,0
2017-10-03T01:06:51.617Z,0
2017-10-03T01:08:00.676Z,0
2017-10-03T01:09:09.447Z,0
2017-10-03T01:10:18.532Z,0
2017-10-03T01:11:27.859Z,0
2017-10-03T01:12:37.134Z,0
2017-10-03T01:13:46.793Z,0
2017-10-03T01:14:56.115Z,0
2017-10-03T01:16:05.398Z,0
2017-10-03T01:17:14.742Z,0
2017-10-03T01:18:23.864Z,0
2017-10-03T01:19:32.543Z,0
2017-10-03T01:20:41.697Z,0
2017-10-03T01:21:51.344Z,0
2017-10-03T01:23:01.031Z,0
2017-10-03T01:24:10.332Z,0
2017-10-03T01:25:19.375Z,0
2017-10-03T01:26:28.383Z,0
2017-10-03T01:27:37.371Z,0
2017-10-03T01:28:46.977Z,0
2017-10-03T01:29:55.730Z,0
2017-10-03T01:31:04.734Z,0
2017-10-03T01:32:13.622Z,0
2017-10-03T01:33:22.317Z,0
2017-10-03T01:34:31.629Z,0
2017-10-03T01:35:40.938Z,0
2017-10-03T01:36:49.610Z,0
2017-10-03T01:37:58.758Z,0
2017-10-03T01:39:08.068Z,0
2017-10-03T01:40:17.056Z,0
2017-10-03T01:41:25.748Z,0
2017-10-03T01:42:34.766Z,0
2017-10-03T01:43:44.024Z,0
2017-10-03T01:44:53.169Z,0
2017-10-03T01:46:02.290Z,0
2017-10-03T01:47:11.067Z,0
2017-10-03T01:48:20.430Z,0
2017-10-03T01:49:30.136Z,0
2017-10-03T01:50:39.330Z,0
2017-10-03T01:51:48.391Z,0
2017-10-03T01:52:58.128Z,0
2017-10-03T01:54:07.259Z,0
2017-10-03T01:55:16.890Z,0
2017-10-03T01:56:26.244Z,0
2017-10-03T01:57:36.218Z,0
2017-10-03T01:58:45.554Z,0
2017-10-03T01:59:54.612Z,0
2017-10-03T02:01:03.585Z,0
2017-10-03T02:02:12.271Z,0
2017-10-03T02:03:21.881Z,0
2017-10-03T02:04:31.486Z,0
2017-10-03T02:05:40.862Z,0
2017-10-03T02:06:49.552Z,0
2017-10-03T02:07:58.532Z,0
2017-10-03T02:09:07.875Z,0
2017-10-03T02:10:16.851Z,0
2017-10-03T02:11:26.160Z,0
2017-10-03T02:12:34.845Z,0
2017-10-03T02:13:44.131Z,0
2017-10-03T02:14:53.107Z,0
2017-10-03T02:16:02.107Z,0
2017-10-03T02:17:11.094Z,0
2017-10-03T02:18:20.755Z,0
2017-10-03T02:19:30.080Z,0
2017-10-03T02:20:38.735Z,0
2017-10-03T02:21:47.398Z,0
2017-10-03T02:22:56.092Z,0
2017-10-03T02:24:05.096Z,0
2017-10-03T02:25:13.770Z,0
2017-10-03T02:26:23.088Z,0
2017-10-03T02:27:32.087Z,0
2017-10-03T02:28:41.384Z,0
2017-10-03T02:29:50.368Z,0
2017-10-03T02:30:59.669Z,0
2017-10-03T02:32:08.650Z,0
2017-10-03T02:33:17.641Z,0
2017-10-03T02:34:26.962Z,0
2017-10-03T02:35:35.953Z,0
2017-10-03T02:36:45.884Z,0
2017-10-03T02:37:55.546Z,0
2017-10-03T02:39:04.229Z,0
2017-10-03T02:40:14.195Z,0
2017-10-03T02:41:22.938Z,0
2017-10-03T02:42:31.926Z,0
2017-10-03T02:43:40.914Z,0
2017-10-03T02:44:49.889Z,0
2017-10-03T02:45:59.183Z,0
2017-10-03T02:47:08.492Z,0
2017-10-03T02:48:17.793Z,0
2017-10-03T02:49:26.776Z,0
2017-10-03T02:50:35.748Z,0
2017-10-03T02:51:45.041Z,0
2017-10-03T02:52:53.707Z,0
2017-10-03T02:54:03.029Z,0
2017-10-03T02:55:12.633Z,0
2017-10-03T02:56:21.299Z,0
2017-10-03T02:57:30.294Z,0
2017-10-03T02:58:39.739Z,0
2017-10-03T02:59:48.734Z,0
2017-10-03T03:00:57.730Z,0
2017-10-03T03:02:07.034Z,0
2017-10-03T03:03:15.714Z,0
2017-10-03T03:04:25.335Z,0
2017-10-03T03:05:34.323Z,0
2017-10-03T03:06:43.021Z,0
2017-10-03T03:07:52.330Z,0
2017-10-03T03:09:01.307Z,0
2017-10-03T03:10:10.443Z,0
2017-10-03T03:11:19.428Z,0
2017-10-03T03:12:28.416Z,0
2017-10-03T03:13:37.085Z,0
2017-10-03T03:14:46.704Z,0
2017-10-03T03:15:55.847Z,0
2017-10-03T03:17:04.522Z,0
2017-10-03T03:18:14.139Z,0
2017-10-03T03:19:23.454Z,0
2017-10-03T03:20:32.759Z,0
2017-10-03T03:21:42.056Z,0
2017-10-03T03:22:51.045Z,0
2017-10-03T03:23:59.730Z,0
2017-10-03T03:25:08.407Z,0
2017-10-03T03:26:17.071Z,0
2017-10-03T03:27:26.771Z,0
2017-10-03T03:28:35.464Z,0
2017-10-03T03:29:44.452Z,0
2017-10-03T03:30:53.747Z,0
2017-10-03T03:32:03.054Z,0
2017-10-03T03:33:12.044Z,0
2017-10-03T03:34:21.356Z,0
2017-10-03T03:35:30.327Z,0
2017-10-03T03:36:39.003Z,0
2017-10-03T03:37:48.304Z,0
2017-10-03T03:38:56.981Z,0
2017-10-03T03:40:06.291Z,0
2017-10-03T03:41:15.272Z,0
2017-10-03T03:42:24.898Z,0
2017-10-03T03:43:33.922Z,0
2017-10-03T03:44:42.758Z,0
2017-10-03T03:45:51.745Z,0
2017-10-03T03:47:00.430Z,0
2017-10-03T03:48:09.095Z,0
2017-10-03T03:49:18.425Z,0
2017-10-03T03:50:27.543Z,0
2017-10-03T03:51:36.234Z,0
2017-10-03T03:52:44.944Z,0
2017-10-03T03:53:54.236Z,0
2017-10-03T03:55:03.232Z,0
2017-10-03T03:56:12.528Z,0
2017-10-03T03:57:21.882Z,0
2017-10-03T03:58:30.569Z,0
2017-10-03T03:59:40.175Z,0
2017-10-03T04:00:49.496Z,0
2017-10-03T04:01:58.481Z,0
2017-10-03T04:03:07.149Z,0
2017-10-03T04:04:15.832Z,0
2017-10-03T04:05:24.498Z,0
2017-10-03T04:06:33.182Z,0
2017-10-03T04:07:42.174Z,0
2017-10-03T04:08:51.166Z,0
2017-10-03T04:10:00.166Z,0
2017-10-03T04:11:08.834Z,0
2017-10-03T04:12:17.530Z,0
2017-10-03T04:13:26.829Z,0
2017-10-03T04:14:35.818Z,0
2017-10-03T04:15:45.449Z,0
2017-10-03T04:16:54.422Z,0
2017-10-03T04:18:03.412Z,0
2017-10-03T04:19:12.317Z,0
2017-10-03T04:20:21.300Z,0
2017-10-03T04:21:30.594Z,0
2017-10-03T04:22:39.568Z,0
2017-10-03T04:23:49.183Z,0
2017-10-03T04:24:58.341Z,0
2017-10-03T04:26:07.342Z,0
2017-10-03T04:27:16.381Z,0
2017-10-03T04:28:25.681Z,0
2017-10-03T04:29:34.985Z,0
2017-10-03T04:30:44.583Z,0
2017-10-03T04:31:53.863Z,0
2017-10-03T04:33:02.590Z,0
2017-10-03T04:34:11.876Z,0
2017-10-03T04:35:21.206Z,0
2017-10-03T04:36:30.496Z,0
2017-10-03T04:37:39.817Z,0
2017-10-03T04:38:48.813Z,0
2017-10-03T04:39:58.115Z,0
2017-10-03T04:41:06.790Z,0
2017-10-03T04:42:15.781Z,0
2017-10-03T04:43:24.757Z,0
2017-10-03T04:44:34.066Z,0
2017-10-03T04:45:42.739Z,0
2017-10-03T04:46:51.717Z,0
2017-10-03T04:48:00.877Z,0
2017-10-03T04:49:09.874Z,0
2017-10-03T04:50:19.173Z,0
2017-10-03T04:51:28.149Z,0
2017-10-03T04:52:37.521Z,0
2017-10-03T04:53:46.810Z,0
2017-10-03T04:54:55.826Z,0
2017-10-03T04:56:05.586Z,0
2017-10-03T04:57:14.265Z,0
2017-10-03T04:58:22.960Z,0
2017-10-03T04:59:32.090Z,0
2017-10-03T05:00:40.778Z,0
2017-10-03T05:01:49.766Z,0
2017-10-03T05:02:58.441Z,0
2017-10-03T05:04:07.440Z,0
2017-10-03T05:05:16.841Z,0
2017-10-03T05:06:25.845Z,0
2017-10-03T05:07:34.835Z,0
2017-10-03T05:08:44.443Z,0
2017-10-03T05:09:53.426Z,0
2017-10-03T05:11:02.413Z,0
2017-10-03T05:12:11.393Z,0
2017-10-03T05:13:20.729Z,0
2017-10-03T05:14:29.400Z,0
2017-10-03T05:15:38.084Z,0
2017-10-03T05:16:47.702Z,0
2017-10-03T05:17:56.378Z,0
2017-10-03T05:19:05.681Z,0
2017-10-03T05:20:14.980Z,0
2017-10-03T05:21:24.296Z,0
2017-10-03T05:22:33.756Z,0
2017-10-03T05:23:43.051Z,0
2017-10-03T05:24:52.343Z,0
2017-10-03T05:26:01.039Z,0
2017-10-03T05:27:09.709Z,0
2017-10-03T05:28:18.914Z,0
2017-10-03T05:29:27.905Z,0
2017-10-03T05:30:37.528Z,0
2017-10-03T05:31:46.522Z,0
2017-10-03T05:32:55.518Z,0
2017-10-03T05:34:04.797Z,0
2017-10-03T05:35:14.088Z,0
2017-10-03T05:36:22.746Z,0
2017-10-03T05:37:32.045Z,0
2017-10-03T05:38:41.971Z,0
2017-10-03T05:39:51.111Z,0
2017-10-03T05:41:00.100Z,0
2017-10-03T05:42:09.072Z,0
2017-10-03T05:43:17.747Z,0
2017-10-03T05:44:27.400Z,0
2017-10-03T05:45:36.866Z,0
2017-10-03T05:46:46.489Z,0
2017-10-03T05:47:55.479Z,0
2017-10-03T05:49:04.462Z,0
2017-10-03T05:50:13.772Z,0
2017-10-03T05:51:22.444Z,0
2017-10-03T05:52:31.428Z,0
2017-10-03T05:53:40.111Z,0
2017-10-03T05:54:49.441Z,0
2017-10-03T05:55:58.752Z,0
2017-10-03T05:57:07.746Z,0
2017-10-03T05:58:16.736Z,0
2017-10-03T05:59:25.416Z,0
2017-10-03T06:00:34.402Z,0
2017-10-03T06:01:43.079Z,5
2017-10-03T06:02:52.386Z,5
2017-10-03T06:04:01.692Z,5
2017-10-03T06:05:10.984Z,5
2017-10-03T06:06:19.721Z,5
2017-10-03T06:07:29.335Z,5
2017-10-03T06:08:38.633Z,5
2017-10-03T06:09:47.626Z,5
2017-10-03T06:10:56.628Z,5
2017-10-03T06:12:05.644Z,5
2017-10-03T06:13:14.947Z,10
2017-10-03T06:14:23.931Z,10
2017-10-03T06:15:33.229Z,10
2017-10-03T06:16:42.222Z,10
2017-10-03T06:17:51.226Z,15
2017-10-03T06:18:59.901Z,15
2017-10-03T06:20:09.024Z,15
2017-10-03T06:21:17.705Z,15
2017-10-03T06:22:26.697Z,10
2017-10-03T06:23:36.331Z,5
2017-10-03T06:24:45.324Z,5
2017-10-03T06:25:54.780Z,5
2017-10-03T06:27:04.393Z,5
2017-10-03T06:28:13.381Z,5
2017-10-03T06:29:22.675Z,5
2017-10-03T06:30:32.393Z,5
2017-10-03T06:31:41.708Z,5
2017-10-03T06:32:50.374Z,10
2017-10-03T06:33:59.343Z,10
2017-10-03T06:35:08.335Z,15
2017-10-03T06:36:17.317Z,15
2017-10-03T06:37:26.327Z,10
2017-10-03T06:38:35.947Z,10
2017-10-03T06:39:44.944Z,15
2017-10-03T06:40:53.618Z,15
2017-10-03T06:42:02.290Z,15
2017-10-03T06:43:10.973Z,15
2017-10-03T06:44:20.585Z,15
2017-10-03T06:45:29.902Z,15
2017-10-03T06:46:38.581Z,15
2017-10-03T06:47:47.253Z,20
2017-10-03T06:48:56.252Z,20
2017-10-03T06:50:05.553Z,20
2017-10-03T06:51:15.492Z,20
2017-10-03T06:52:24.174Z,20
2017-10-03T06:53:32.850Z,20
2017-10-03T06:54:42.488Z,20
2017-10-03T06:55:51.484Z,20
2017-10-03T06:57:01.104Z,15
2017-10-03T06:58:10.420Z,15
2017-10-03T06:59:19.399Z,15
2017-10-03T07:00:28.397Z,15
2017-10-03T07:01:37.084Z,15
2017-10-03T07:02:46.103Z,15
2017-10-03T07:03:55.082Z,15
2017-10-03T07:05:04.078Z,15
2017-10-03T07:06:13.489Z,15
2017-10-03T07:07:22.462Z,15
2017-10-03T07:08:31.774Z,20
2017-10-03T07:09:41.396Z,15
2017-10-03T07:10:51.021Z,15
2017-10-03T07:12:00.010Z,20
2017-10-03T07:13:09.945Z,25
2017-10-03T07:14:19.247Z,20
2017-10-03T07:15:28.256Z,20
2017-10-03T07:16:36.928Z,20
2017-10-03T07:17:46.384Z,20
2017-10-03T07:18:55.664Z,20
2017-10-03T07:20:04.421Z,25
2017-10-03T07:21:14.353Z,30
2017-10-03T07:22:23.344Z,40
2017-10-03T07:23:32.025Z,35
2017-10-03T07:24:41.670Z,40
2017-10-03T07:25:50.343Z,35
2017-10-03T07:26:59.023Z,30
2017-10-03T07:28:08.353Z,30
2017-10-03T07:29:17.720Z,30
2017-10-03T07:30:27.016Z,30
2017-10-03T07:31:35.688Z,30
2017-10-03T07:32:44.682Z,30
2017-10-03T07:33:53.999Z,30
2017-10-03T07:35:02.978Z,30
2017-10-03T07:36:12.274Z,30
2017-10-03T07:37:21.598Z,30
2017-10-03T07:38:31.237Z,25
2017-10-03T07:39:40.227Z,30
2017-10-03T07:40:49.505Z,30
2017-10-03T07:41:58.510Z,25
2017-10-03T07:43:07.834Z,25
2017-10-03T07:44:16.522Z,25
2017-10-03T07:45:25.543Z,25
2017-10-03T07:46:34.970Z,15
2017-10-03T07:47:43.990Z,10
2017-10-03T07:48:52.989Z,15
2017-10-03T07:50:02.620Z,20
2017-10-03T07:51:11.606Z,25
2017-10-03T07:52:20.453Z,30
2017-10-03T07:53:29.435Z,35
2017-10-03T07:54:38.438Z,30
2017-10-03T07:55:47.767Z,35
2017-10-03T07:56:56.774Z,30
2017-10-03T07:58:06.415Z,20
2017-10-03T07:59:15.772Z,20
2017-10-03T08:00:25.058Z,15
2017-10-03T08:01:34.413Z,30
2017-10-03T08:02:43.441Z,30
2017-10-03T08:03:53.216Z,40
2017-10-03T08:05:02.232Z,45
2017-10-03T08:06:11.661Z,35
2017-10-03T08:07:20.366Z,25
2017-10-03T08:08:29.737Z,30
2017-10-03T08:09:39.091Z,25
2017-10-03T08:10:48.076Z,25
2017-10-03T08:11:57.771Z,30
2017-10-03T08:13:06.465Z,30
2017-10-03T08:14:15.131Z,30
2017-10-03T08:15:25.397Z,35
2017-10-03T08:16:34.385Z,40
2017-10-03T08:17:43.683Z,50
2017-10-03T08:18:52.741Z,40
2017-10-03T08:20:01.721Z,35
2017-10-03T08:21:11.137Z,35
2017-10-03T08:22:20.140Z,35
2017-10-03T08:23:29.140Z,30
2017-10-03T08:24:38.445Z,40
2017-10-03T08:25:47.465Z,45
2017-10-03T08:26:56.576Z,50
2017-10-03T08:28:05.547Z,55
2017-10-03T08:29:14.541Z,40
2017-10-03T08:30:23.236Z,55
2017-10-03T08:31:32.272Z,25
2017-10-03T08:32:41.306Z,25
2017-10-03T08:33:50.306Z,35
2017-10-03T08:34:59.324Z,35
2017-10-03T08:36:08.342Z,35
2017-10-03T08:37:17.432Z,40
2017-10-03T08:38:26.605Z,40
2017-10-03T08:39:35.583Z,45
2017-10-03T08:40:44.893Z,50
2017-10-03T08:41:53.887Z,45
2017-10-03T08:43:02.568Z,45
2017-10-03T08:44:11.583Z,45
2017-10-03T08:45:21.224Z,35
2017-10-03T08:46:30.218Z,40
2017-10-03T08:47:39.236Z,35
2017-10-03T08:48:48.261Z,25
2017-10-03T08:49:57.552Z,25
2017-10-03T08:51:06.840Z,40
2017-10-03T08:52:15.516Z,35
2017-10-03T08:53:25.118Z,25
2017-10-03T08:54:34.417Z,35
2017-10-03T08:55:43.108Z,25
2017-10-03T08:56:52.087Z,30
2017-10-03T08:58:01.090Z,40
2017-10-03T08:59:10.081Z,40
2017-10-03T09:00:19.143Z,45
2017-10-03T09:01:28.444Z,35
2017-10-03T09:02:37.451Z,25
2017-10-03T09:03:46.143Z,20
2017-10-03T09:04:54.815Z,20
2017-10-03T09:06:03.799Z,20
2017-10-03T09:07:12.890Z,30
2017-10-03T09:08:21.887Z,25
2017-10-03T09:09:30.899Z,20
2017-10-03T09:10:39.894Z,25
2017-10-03T09:11:48.594Z,35
2017-10-03T09:12:57.421Z,30
2017-10-03T09:14:06.092Z,40
2017-10-03T09:15:15.141Z,45
2017-10-03T09:16:24.168Z,35
2017-10-03T09:17:34.107Z,50
2017-10-03T09:18:43.395Z,55
2017-10-03T09:19:52.064Z,45
2017-10-03T09:21:01.376Z,45
2017-10-03T09:22:10.038Z,30
2017-10-03T09:23:19.321Z,30
2017-10-03T09:24:28.442Z,30
2017-10-03T09:25:37.735Z,45
2017-10-03T09:26:47.028Z,50
2017-10-03T09:27:56.006Z,50
2017-10-03T09:29:04.998Z,35
2017-10-03T09:30:14.296Z,25
2017-10-03T09:31:23.290Z,20
2017-10-03T09:32:31.956Z,15
2017-10-03T09:33:40.949Z,20
2017-10-03T09:34:49.936Z,25
2017-10-03T09:35:59.255Z,30
2017-10-03T09:37:08.327Z,45
2017-10-03T09:38:17.377Z,35
2017-10-03T09:39:26.681Z,25
2017-10-03T09:40:35.978Z,30
2017-10-03T09:41:45.304Z,30
2017-10-03T09:42:54.288Z,30
2017-10-03T09:44:03.570Z,45
2017-10-03T09:45:12.566Z,35
2017-10-03T09:46:21.545Z,25
2017-10-03T09:47:30.525Z,20
2017-10-03T09:48:39.535Z,15
2017-10-03T09:49:48.839Z,10
2017-10-03T09:50:58.135Z,5
2017-10-03T09:52:07.120Z,5
2017-10-03T09:53:16.117Z,5
2017-10-03T09:54:24.850Z,5
2017-10-03T09:55:33.515Z,5
2017-10-03T09:56:42.508Z,5
2017-10-03T09:57:51.200Z,5
2017-10-03T09:59:00.645Z,5
2017-10-03T10:00:09.621Z,5
2017-10-03T10:01:18.608Z,10
2017-10-03T10:02:27.914Z,15
2017-10-03T10:03:36.614Z,20
2017-10-03T10:07:19.827Z,50
2017-10-03T10:08:29.128Z,50
2017-10-03T10:09:38.430Z,45
2017-10-03T10:10:47.109Z,40
2017-10-03T10:11:56.395Z,35
2017-10-03T10:13:05.701Z,40
2017-10-03T10:14:15.034Z,45
2017-10-03T10:15:24.058Z,45
2017-10-03T10:16:33.388Z,35
2017-10-03T10:17:43.033Z,30
2017-10-03T10:18:51.722Z,25
2017-10-03T10:20:01.025Z,30
2017-10-03T10:21:09.705Z,30
2017-10-03T10:22:19.313Z,20
2017-10-03T10:23:28.308Z,25
2017-10-03T10:24:37.473Z,20
2017-10-03T10:25:46.833Z,25
2017-10-03T10:26:56.212Z,25
2017-10-03T10:28:05.199Z,30
2017-10-03T10:29:14.224Z,35
2017-10-03T10:30:23.249Z,40
2017-10-03T10:31:32.265Z,40
2017-10-03T10:32:41.892Z,50
2017-10-03T10:33:50.922Z,50
2017-10-03T10:34:59.912Z,45
2017-10-03T10:36:08.699Z,40
2017-10-03T10:37:17.992Z,45
2017-10-03T10:38:27.611Z,35
2017-10-03T10:39:36.299Z,40
2017-10-03T10:40:45.294Z,40
2017-10-03T10:41:54.592Z,45
2017-10-03T10:43:03.916Z,50
2017-10-03T10:44:13.215Z,35
2017-10-03T10:45:21.906Z,30
2017-10-03T10:46:31.195Z,25
2017-10-03T10:47:40.537Z,10
2017-10-03T10:48:49.549Z,5
2017-10-03T10:49:58.222Z,10
2017-10-03T10:51:07.529Z,15
2017-10-03T10:52:16.304Z,20
2017-10-03T10:53:25.008Z,20
2017-10-03T10:54:33.679Z,25
2017-10-03T10:55:42.674Z,30
2017-10-03T10:56:51.345Z,30
2017-10-03T10:58:00.650Z,30
2017-10-03T10:59:09.340Z,30
2017-10-03T11:00:18.654Z,30
2017-10-03T11:01:27.663Z,25
2017-10-03T11:02:36.648Z,25
2017-10-03T11:03:45.647Z,25
2017-10-03T11:04:54.951Z,30
2017-10-03T11:06:03.943Z,35
2017-10-03T11:07:12.949Z,40
2017-10-03T11:08:22.598Z,45
2017-10-03T11:09:31.610Z,40
2017-10-03T11:10:40.935Z,45
2017-10-03T11:11:49.933Z,45
2017-10-03T11:12:59.225Z,40
2017-10-03T11:14:08.294Z,35
2017-10-03T11:15:17.308Z,25
2017-10-03T11:16:26.294Z,20
2017-10-03T11:17:35.597Z,20
2017-10-03T11:18:44.933Z,15
2017-10-03T11:19:54.005Z,20
2017-10-03T11:21:03.311Z,25
2017-10-03T11:22:12.020Z,20
2017-10-03T11:23:21.009Z,20
2017-10-03T11:24:29.672Z,20
2017-10-03T11:25:38.692Z,20
2017-10-03T11:26:48.051Z,20
2017-10-03T11:27:57.049Z,20
2017-10-03T11:29:06.070Z,15
2017-10-03T11:30:14.760Z,15
2017-10-03T11:31:23.765Z,15
2017-10-03T11:32:32.771Z,20
2017-10-03T11:33:41.754Z,20
2017-10-03T11:34:51.064Z,20
2017-10-03T11:36:00.050Z,20
2017-10-03T11:37:08.709Z,25
2017-10-03T11:38:17.723Z,25
2017-10-03T11:39:26.843Z,30
2017-10-03T11:40:35.538Z,30
2017-10-03T11:41:44.539Z,30
2017-10-03T11:42:53.241Z,30
2017-10-03T11:44:02.562Z,30
2017-10-03T11:45:11.869Z,30
2017-10-03T11:46:20.846Z,30
2017-10-03T11:47:30.149Z,35
2017-10-03T11:48:39.176Z,35
2017-10-03T11:49:48.475Z,30
2017-10-03T11:50:57.457Z,25
2017-10-03T11:52:07.138Z,15
2017-10-03T11:53:16.142Z,15
2017-10-03T11:54:25.195Z,15
2017-10-03T11:55:34.870Z,15
2017-10-03T11:56:44.164Z,20
2017-10-03T11:57:53.466Z,15
2017-10-03T11:59:02.463Z,20
2017-10-03T12:00:11.453Z,20
2017-10-03T12:01:20.462Z,25
2017-10-03T12:02:29.457Z,25
2017-10-03T12:03:38.774Z,25
2017-10-03T12:04:47.770Z,25
2017-10-03T12:05:56.791Z,30
2017-10-03T12:07:06.122Z,40
2017-10-03T12:08:15.431Z,40
2017-10-03T12:09:24.443Z,35
2017-10-03T12:10:34.397Z,30
2017-10-03T12:11:43.073Z,20
2017-10-03T12:12:51.743Z,25
2017-10-03T12:14:00.740Z,25
2017-10-03T12:15:09.454Z,25
2017-10-03T12:16:18.139Z,30
2017-10-03T12:17:27.447Z,35
2017-10-03T12:18:37.069Z,35
2017-10-03T12:19:45.861Z,25
2017-10-03T12:20:55.495Z,20
2017-10-03T12:22:04.503Z,30
2017-10-03T12:23:14.124Z,20
2017-10-03T12:24:22.772Z,15
2017-10-03T12:25:31.780Z,15
2017-10-03T12:26:40.782Z,15
2017-10-03T12:27:49.463Z,15
2017-10-03T12:28:58.514Z,15
2017-10-03T12:30:07.837Z,15
2017-10-03T12:31:16.926Z,20
2017-10-03T12:32:25.901Z,20
2017-10-03T12:34:07.585Z,20
2017-10-03T12:35:16.881Z,20
2017-10-03T12:36:25.850Z,20
2017-10-03T12:37:34.828Z,15
2017-10-03T12:38:43.821Z,20
2017-10-03T12:39:53.128Z,20
2017-10-03T12:41:01.804Z,20
2017-10-03T12:42:10.856Z,20
2017-10-03T12:43:20.163Z,15
2017-10-03T12:44:29.139Z,20
2017-10-03T12:45:38.136Z,20
2017-10-03T12:46:46.825Z,20
2017-10-03T12:47:56.123Z,25
2017-10-03T12:49:05.099Z,25
2017-10-03T12:50:14.068Z,25
2017-10-03T12:51:23.843Z,20
2017-10-03T12:52:32.834Z,20
2017-10-03T12:53:41.514Z,20
2017-10-03T12:54:50.493Z,15
2017-10-03T12:55:59.156Z,20
2017-10-03T12:57:08.459Z,25
2017-10-03T12:58:18.114Z,25
2017-10-03T12:59:27.113Z,20
2017-10-03T13:00:35.784Z,20
2017-10-03T13:01:44.462Z,20
2017-10-03T13:02:53.462Z,25
2017-10-03T13:04:02.445Z,25
2017-10-03T13:05:11.449Z,20
2017-10-03T13:06:20.445Z,20
2017-10-03T13:07:29.140Z,20
2017-10-03T13:08:38.129Z,20
2017-10-03T13:09:47.200Z,20
2017-10-03T13:10:55.876Z,15
2017-10-03T13:12:04.590Z,15
2017-10-03T13:13:13.637Z,15
2017-10-03T13:14:22.745Z,10
2017-10-03T13:15:31.769Z,15
2017-10-03T13:16:40.785Z,10
2017-10-03T13:17:50.099Z,15
2017-10-03T13:18:58.768Z,15
2017-10-03T13:20:07.453Z,20
2017-10-03T13:21:16.151Z,15
2017-10-03T13:22:24.828Z,20
2017-10-03T13:23:34.155Z,25
2017-10-03T13:24:43.140Z,25
2017-10-03T13:25:52.210Z,30
2017-10-03T13:27:01.524Z,20
2017-10-03T13:28:10.281Z,25
2017-10-03T13:29:18.966Z,25
2017-10-03T13:30:28.282Z,20
2017-10-03T13:31:37.276Z,20
2017-10-03T13:32:46.274Z,15
2017-10-03T13:33:55.595Z,20
2017-10-03T13:35:04.611Z,15
2017-10-03T13:36:13.301Z,15
2017-10-03T13:37:22.611Z,15
2017-10-03T13:38:31.938Z,15
2017-10-03T13:39:41.093Z,20
2017-10-03T13:40:50.394Z,20
2017-10-03T13:41:59.699Z,20
2017-10-03T13:43:08.742Z,20
2017-10-03T13:44:17.434Z,20
2017-10-03T13:45:26.601Z,20
2017-10-03T13:46:35.615Z,15
2017-10-03T13:47:44.628Z,20
2017-10-03T13:48:53.719Z,20
2017-10-03T13:50:02.761Z,20
2017-10-03T13:51:11.429Z,20
2017-10-03T13:52:20.792Z,20
2017-10-03T13:53:29.826Z,20
2017-10-03T13:54:38.817Z,20
2017-10-03T13:55:48.111Z,20
2017-10-03T13:56:57.107Z,20
2017-10-03T13:58:06.408Z,20
2017-10-03T13:59:15.393Z,15
2017-10-03T14:00:24.097Z,15
2017-10-03T14:01:33.403Z,15
2017-10-03T14:02:42.404Z,10
2017-10-03T14:03:51.393Z,10
2017-10-03T14:05:00.049Z,5
2017-10-03T14:06:09.085Z,5
2017-10-03T14:07:18.421Z,5
2017-10-03T14:08:27.722Z,5
2017-10-03T14:09:36.695Z,5
2017-10-03T14:10:45.985Z,5
2017-10-03T14:11:54.979Z,0
2017-10-03T14:13:03.954Z,0
2017-10-03T14:14:12.950Z,5
2017-10-03T14:15:21.657Z,5
2017-10-03T14:16:30.646Z,5
2017-10-03T14:17:39.634Z,10
2017-10-03T14:18:49.250Z,10
2017-10-03T14:19:58.701Z,15
2017-10-03T14:21:08.001Z,15
2017-10-03T14:22:17.313Z,15
2017-10-03T14:23:25.998Z,20
2017-10-03T14:24:35.620Z,20
2017-10-03T14:25:44.805Z,20
2017-10-03T14:26:53.525Z,20
2017-10-03T14:28:02.573Z,20
2017-10-03T14:29:12.214Z,20
2017-10-03T14:30:21.541Z,20
2017-10-03T14:31:31.079Z,15
2017-10-03T14:32:39.775Z,15
2017-10-03T14:33:48.478Z,20
2017-10-03T14:34:57.167Z,20
2017-10-03T14:36:06.227Z,20
2017-10-03T14:37:15.853Z,20
2017-10-03T14:38:24.561Z,20
2017-10-03T14:39:34.161Z,20
2017-10-03T14:40:43.189Z,15
2017-10-03T14:41:51.925Z,15
2017-10-03T14:43:00.768Z,15
2017-10-03T14:44:09.456Z,10
2017-10-03T14:45:19.199Z,10
2017-10-03T14:46:27.874Z,10
2017-10-03T14:47:37.200Z,5
2017-10-03T14:48:46.553Z,5
2017-10-03T14:49:55.239Z,5
2017-10-03T14:53:36.292Z,0
2017-10-03T14:54:44.975Z,0
2017-10-03T14:55:53.648Z,0
2017-10-03T14:57:02.965Z,0
2017-10-03T14:58:11.945Z,0
2017-10-03T14:59:21.284Z,0
2017-10-03T15:00:30.588Z,0
2017-10-03T15:01:39.261Z,0
2017-10-03T15:02:48.258Z,0
2017-10-03T15:03:57.276Z,0
2017-10-03T15:05:06.274Z,5
2017-10-03T15:06:15.279Z,5
2017-10-03T15:07:24.618Z,5
2017-10-03T15:08:33.354Z,5
2017-10-03T15:09:42.674Z,5
2017-10-03T15:10:51.987Z,5
2017-10-03T15:12:01.434Z,5
2017-10-03T15:13:10.425Z,0
2017-10-03T15:14:19.095Z,0
2017-10-03T15:15:28.404Z,0
2017-10-03T15:16:37.395Z,0
2017-10-03T15:17:46.395Z,0
2017-10-03T15:18:55.680Z,0
2017-10-03T15:20:04.678Z,0
2017-10-03T15:21:14.321Z,0
2017-10-03T15:22:23.646Z,0
2017-10-03T15:23:32.655Z,5
2017-10-03T15:24:41.644Z,5
2017-10-03T15:25:50.329Z,5
2017-10-03T15:26:59.319Z,5
2017-10-03T15:28:08.339Z,5
2017-10-03T15:29:17.319Z,5
2017-10-03T15:30:26.019Z,5
2017-10-03T15:31:34.705Z,5
2017-10-03T15:32:43.375Z,5
2017-10-03T15:33:52.388Z,5
2017-10-03T15:35:02.158Z,5
2017-10-03T15:36:11.145Z,5
2017-10-03T15:37:20.161Z,5
2017-10-03T15:38:29.461Z,5
2017-10-03T15:39:38.120Z,5
2017-10-03T15:40:46.781Z,5
2017-10-03T15:41:55.763Z,0
2017-10-03T15:43:05.361Z,5
2017-10-03T15:44:15.282Z,5
2017-10-03T15:45:24.595Z,5
2017-10-03T15:46:33.908Z,5
2017-10-03T15:47:42.891Z,5
2017-10-03T15:48:51.873Z,5
2017-10-03T15:50:01.480Z,5
2017-10-03T15:51:10.785Z,5
2017-10-03T15:52:19.918Z,5
2017-10-03T15:53:28.912Z,0
2017-10-03T15:54:37.577Z,0
2017-10-03T15:55:46.573Z,0
2017-10-03T15:56:55.571Z,0
2017-10-03T15:58:04.581Z,0
2017-10-03T15:59:13.905Z,0
2017-10-03T16:00:23.211Z,0
2017-10-03T16:01:32.226Z,0
2017-10-03T16:02:40.906Z,0
2017-10-03T16:03:49.596Z,0
2017-10-03T16:04:58.896Z,0
2017-10-03T16:06:07.862Z,0
2017-10-03T16:07:16.548Z,0
2017-10-03T16:08:25.520Z,5
2017-10-03T16:09:34.346Z,5
2017-10-03T16:10:43.322Z,5
2017-10-03T16:14:26.511Z,5
2017-10-03T16:15:35.478Z,5
2017-10-03T16:19:16.852Z,0
2017-10-03T16:20:26.460Z,0
2017-10-03T16:24:08.672Z,5
2017-10-03T16:25:17.333Z,5
2017-10-03T16:26:26.327Z,5
2017-10-03T16:27:35.951Z,0
2017-10-03T16:28:45.242Z,0
2017-10-03T16:29:54.553Z,0
2017-10-03T16:31:03.691Z,5
2017-10-03T16:32:12.369Z,5
2017-10-03T16:33:21.058Z,0
2017-10-03T16:34:30.356Z,0
2017-10-03T16:35:39.351Z,0
2017-10-03T16:36:48.492Z,0
2017-10-03T16:37:57.796Z,0
2017-10-03T16:39:07.136Z,0
2017-10-03T16:40:15.836Z,0
2017-10-03T16:41:24.821Z,0
2017-10-03T16:45:07.108Z,0
2017-10-03T16:46:16.398Z,0
2017-10-03T16:47:25.087Z,0
2017-10-03T16:48:34.374Z,0
2017-10-03T16:49:43.362Z,0
2017-10-03T16:53:25.335Z,0
2017-10-03T16:54:34.372Z,0
2017-10-03T16:55:43.359Z,0
2017-10-03T16:59:26.691Z,0
2017-10-03T17:00:35.650Z,0
2017-10-03T17:01:44.668Z,0
2017-10-03T17:02:53.632Z,0
2017-10-03T17:04:02.927Z,0